sensor_id;sensor_type;location;lat;lon;timestamp;temperature;humidity
69225;DHT22;56333;51.306;17.056;2023-08-30T00:00:18;17.43;81.60
69225;DHT22;56333;51.306;17.056;2023-08-30T00:02:04;17.45;81.65
69225;DHT22;56333;51.306;17.056;2023-08-30T00:03:32;17.47;81.50
69225;DHT22;56333;51.306;17.056;2023-08-30T00:04:59;17.46;81.45
69225;DHT22;56333;51.306;17.056;2023-08-30T00:06:24;17.47;81.43
69225;DHT22;56333;51.306;17.056;2023-08-30T00:07:49;17.48;81.30
69225;DHT22;56333;51.306;17.056;2023-08-30T00:09:15;17.45;81.20
69225;DHT22;56333;51.306;17.056;2023-08-30T00:10:40;17.42;81.18
69225;DHT22;56333;51.306;17.056;2023-08-30T00:12:06;17.41;81.18
69225;DHT22;56333;51.306;17.056;2023-08-30T00:13:31;17.40;81.20
69225;DHT22;56333;51.306;17.056;2023-08-30T00:14:56;17.41;81.15
69225;DHT22;56333;51.306;17.056;2023-08-30T00:16:24;17.39;81.18
69225;DHT22;56333;51.306;17.056;2023-08-30T00:17:49;17.40;81.25
69225;DHT22;56333;51.306;17.056;2023-08-30T00:19:14;17.40;81.30
69225;DHT22;56333;51.306;17.056;2023-08-30T00:20:42;17.40;81.28
69225;DHT22;56333;51.306;17.056;2023-08-30T00:22:08;17.42;81.32
69225;DHT22;56333;51.306;17.056;2023-08-30T00:23:32;17.42;81.28
69225;DHT22;56333;51.306;17.056;2023-08-30T00:24:59;17.44;81.20
69225;DHT22;56333;51.306;17.056;2023-08-30T00:26:24;17.47;81.30
69225;DHT22;56333;51.306;17.056;2023-08-30T00:27:51;17.49;81.28
69225;DHT22;56333;51.306;17.056;2023-08-30T00:29:19;17.50;81.25
69225;DHT22;56333;51.306;17.056;2023-08-30T00:30:52;17.52;81.05
69225;DHT22;56333;51.306;17.056;2023-08-30T00:32:18;17.52;80.95
69225;DHT22;56333;51.306;17.056;2023-08-30T00:33:44;17.52;80.88
69225;DHT22;56333;51.306;17.056;2023-08-30T00:35:10;17.53;80.82
69225;DHT22;56333;51.306;17.056;2023-08-30T00:36:37;17.52;80.85
69225;DHT22;56333;51.306;17.056;2023-08-30T00:38:02;17.52;80.90
69225;DHT22;56333;51.306;17.056;2023-08-30T00:39:26;17.52;80.80
69225;DHT22;56333;51.306;17.056;2023-08-30T00:40:51;17.53;80.80
69225;DHT22;56333;51.306;17.056;2023-08-30T00:42:17;17.52;80.80
69225;DHT22;56333;51.306;17.056;2023-08-30T00:43:42;17.52;80.82
69225;DHT22;56333;51.306;17.056;2023-08-30T00:45:09;17.53;80.80
69225;DHT22;56333;51.306;17.056;2023-08-30T00:46:34;17.54;80.78
69225;DHT22;56333;51.306;17.056;2023-08-30T00:48:00;17.54;80.65
69225;DHT22;56333;51.306;17.056;2023-08-30T00:49:27;17.53;80.68
69225;DHT22;56333;51.306;17.056;2023-08-30T00:50:53;17.51;80.55
69225;DHT22;56333;51.306;17.056;2023-08-30T00:52:19;17.52;80.60
69225;DHT22;56333;51.306;17.056;2023-08-30T00:53:44;17.50;80.63
69225;DHT22;56333;51.306;17.056;2023-08-30T00:55:09;17.50;80.78
69225;DHT22;56333;51.306;17.056;2023-08-30T00:56:34;17.49;80.78
69225;DHT22;56333;51.306;17.056;2023-08-30T00:57:59;17.50;80.82
69225;DHT22;56333;51.306;17.056;2023-08-30T00:59:24;17.51;80.82
69225;DHT22;56333;51.306;17.056;2023-08-30T01:00:50;17.50;80.75
69225;DHT22;56333;51.306;17.056;2023-08-30T01:02:16;17.51;80.70
69225;DHT22;56333;51.306;17.056;2023-08-30T01:03:41;17.50;80.75
69225;DHT22;56333;51.306;17.056;2023-08-30T01:05:06;17.50;80.80
69225;DHT22;56333;51.306;17.056;2023-08-30T01:06:32;17.52;80.78
69225;DHT22;56333;51.306;17.056;2023-08-30T01:07:58;17.53;80.80
69225;DHT22;56333;51.306;17.056;2023-08-30T01:09:23;17.55;80.72
69225;DHT22;56333;51.306;17.056;2023-08-30T01:10:52;17.56;80.65
69225;DHT22;56333;51.306;17.056;2023-08-30T01:12:26;17.54;80.57
69225;DHT22;56333;51.306;17.056;2023-08-30T01:14:03;17.53;80.53
69225;DHT22;56333;51.306;17.056;2023-08-30T01:15:38;17.52;80.45
69225;DHT22;56333;51.306;17.056;2023-08-30T01:17:04;17.49;80.38
69225;DHT22;56333;51.306;17.056;2023-08-30T01:18:33;17.47;80.50
69225;DHT22;56333;51.306;17.056;2023-08-30T01:20:01;17.44;80.57
69225;DHT22;56333;51.306;17.056;2023-08-30T01:21:41;17.41;80.75
69225;DHT22;56333;51.306;17.056;2023-08-30T01:23:22;17.41;80.75
69225;DHT22;56333;51.306;17.056;2023-08-30T01:24:58;17.35;80.80
69225;DHT22;56333;51.306;17.056;2023-08-30T01:26:45;17.35;80.88
69225;DHT22;56333;51.306;17.056;2023-08-30T01:28:22;17.34;80.88
69225;DHT22;56333;51.306;17.056;2023-08-30T01:29:49;17.33;80.82
69225;DHT22;56333;51.306;17.056;2023-08-30T01:31:18;17.31;80.72
69225;DHT22;56333;51.306;17.056;2023-08-30T01:32:44;17.30;80.70
69225;DHT22;56333;51.306;17.056;2023-08-30T01:34:09;17.28;80.75
69225;DHT22;56333;51.306;17.056;2023-08-30T01:35:35;17.27;80.82
69225;DHT22;56333;51.306;17.056;2023-08-30T01:37:03;17.29;80.97
69225;DHT22;56333;51.306;17.056;2023-08-30T01:38:30;17.28;80.88
69225;DHT22;56333;51.306;17.056;2023-08-30T01:39:57;17.27;80.82
69225;DHT22;56333;51.306;17.056;2023-08-30T01:41:26;17.29;80.88
69225;DHT22;56333;51.306;17.056;2023-08-30T01:42:53;17.28;80.95
69225;DHT22;56333;51.306;17.056;2023-08-30T01:44:19;17.31;80.90
69225;DHT22;56333;51.306;17.056;2023-08-30T01:45:44;17.33;80.85
69225;DHT22;56333;51.306;17.056;2023-08-30T01:47:08;17.35;80.80
69225;DHT22;56333;51.306;17.056;2023-08-30T01:48:33;17.35;80.68
69225;DHT22;56333;51.306;17.056;2023-08-30T01:49:59;17.32;80.60
69225;DHT22;56333;51.306;17.056;2023-08-30T01:51:26;17.32;80.65
69225;DHT22;56333;51.306;17.056;2023-08-30T01:52:52;17.31;80.72
69225;DHT22;56333;51.306;17.056;2023-08-30T01:54:22;17.31;80.72
69225;DHT22;56333;51.306;17.056;2023-08-30T01:55:47;17.32;80.82
69225;DHT22;56333;51.306;17.056;2023-08-30T01:57:12;17.32;80.72
69225;DHT22;56333;51.306;17.056;2023-08-30T01:58:37;17.32;80.78
69225;DHT22;56333;51.306;17.056;2023-08-30T02:00:01;17.32;80.78
69225;DHT22;56333;51.306;17.056;2023-08-30T02:01:38;17.33;80.68
69225;DHT22;56333;51.306;17.056;2023-08-30T02:03:09;17.32;80.60
69225;DHT22;56333;51.306;17.056;2023-08-30T02:04:34;17.32;80.57
69225;DHT22;56333;51.306;17.056;2023-08-30T02:06:02;17.32;80.43
69225;DHT22;56333;51.306;17.056;2023-08-30T02:07:35;17.28;80.47
69225;DHT22;56333;51.306;17.056;2023-08-30T02:09:09;17.26;80.57
69225;DHT22;56333;51.306;17.056;2023-08-30T02:10:47;17.26;80.53
69225;DHT22;56333;51.306;17.056;2023-08-30T02:12:17;17.25;80.60
69225;DHT22;56333;51.306;17.056;2023-08-30T02:13:48;17.26;80.75
69225;DHT22;56333;51.306;17.056;2023-08-30T02:15:16;17.27;80.75
69225;DHT22;56333;51.306;17.056;2023-08-30T02:16:43;17.28;80.72
69225;DHT22;56333;51.306;17.056;2023-08-30T02:18:09;17.30;80.70
69225;DHT22;56333;51.306;17.056;2023-08-30T02:19:34;17.31;80.60
69225;DHT22;56333;51.306;17.056;2023-08-30T02:20:59;17.32;80.63
69225;DHT22;56333;51.306;17.056;2023-08-30T02:22:25;17.30;80.55
69225;DHT22;56333;51.306;17.056;2023-08-30T02:23:53;17.29;80.53
69225;DHT22;56333;51.306;17.056;2023-08-30T02:25:17;17.29;80.78
69225;DHT22;56333;51.306;17.056;2023-08-30T02:26:45;17.29;80.82
69225;DHT22;56333;51.306;17.056;2023-08-30T02:28:10;17.28;80.93
69225;DHT22;56333;51.306;17.056;2023-08-30T02:29:35;17.28;80.88
69225;DHT22;56333;51.306;17.056;2023-08-30T02:31:01;17.26;80.97
69225;DHT22;56333;51.306;17.056;2023-08-30T02:32:26;17.29;80.95
69225;DHT22;56333;51.306;17.056;2023-08-30T02:33:52;17.27;80.85
69225;DHT22;56333;51.306;17.056;2023-08-30T02:35:17;17.27;80.70
69225;DHT22;56333;51.306;17.056;2023-08-30T02:36:42;17.25;80.47
69225;DHT22;56333;51.306;17.056;2023-08-30T02:38:06;17.23;80.47
69225;DHT22;56333;51.306;17.056;2023-08-30T02:39:31;17.21;80.43
69225;DHT22;56333;51.306;17.056;2023-08-30T02:40:56;17.22;80.50
69225;DHT22;56333;51.306;17.056;2023-08-30T02:42:21;17.22;80.43
69225;DHT22;56333;51.306;17.056;2023-08-30T02:43:52;17.20;80.47
69225;DHT22;56333;51.306;17.056;2023-08-30T02:45:18;17.21;80.47
69225;DHT22;56333;51.306;17.056;2023-08-30T02:46:43;17.21;80.43
69225;DHT22;56333;51.306;17.056;2023-08-30T02:48:08;17.22;80.40
69225;DHT22;56333;51.306;17.056;2023-08-30T02:49:33;17.23;80.30
69225;DHT22;56333;51.306;17.056;2023-08-30T02:50:59;17.23;80.15
69225;DHT22;56333;51.306;17.056;2023-08-30T02:52:24;17.22;80.03
69225;DHT22;56333;51.306;17.056;2023-08-30T02:53:50;17.20;79.97
69225;DHT22;56333;51.306;17.056;2023-08-30T02:55:15;17.18;80.03
69225;DHT22;56333;51.306;17.056;2023-08-30T02:56:40;17.16;80.13
69225;DHT22;56333;51.306;17.056;2023-08-30T02:58:06;17.17;80.18
69225;DHT22;56333;51.306;17.056;2023-08-30T02:59:31;17.17;80.20
69225;DHT22;56333;51.306;17.056;2023-08-30T03:01:00;17.17;80.18
69225;DHT22;56333;51.306;17.056;2023-08-30T03:02:25;17.15;80.07
69225;DHT22;56333;51.306;17.056;2023-08-30T03:03:51;17.16;80.00
69225;DHT22;56333;51.306;17.056;2023-08-30T03:05:17;17.13;80.00
69225;DHT22;56333;51.306;17.056;2023-08-30T03:06:42;17.10;79.88
69225;DHT22;56333;51.306;17.056;2023-08-30T03:08:06;17.07;79.93
69225;DHT22;56333;51.306;17.056;2023-08-30T03:09:31;17.05;79.95
69225;DHT22;56333;51.306;17.056;2023-08-30T03:10:56;17.05;80.05
69225;DHT22;56333;51.306;17.056;2023-08-30T03:12:31;17.03;80.20
69225;DHT22;56333;51.306;17.056;2023-08-30T03:13:55;17.05;80.22
69225;DHT22;56333;51.306;17.056;2023-08-30T03:15:20;17.06;80.28
69225;DHT22;56333;51.306;17.056;2023-08-30T03:16:45;17.07;80.30
69225;DHT22;56333;51.306;17.056;2023-08-30T03:18:13;17.07;80.25
69225;DHT22;56333;51.306;17.056;2023-08-30T03:19:38;17.07;80.20
69225;DHT22;56333;51.306;17.056;2023-08-30T03:21:04;17.06;80.10
69225;DHT22;56333;51.306;17.056;2023-08-30T03:22:29;17.06;80.05
69225;DHT22;56333;51.306;17.056;2023-08-30T03:23:55;17.05;79.97
69225;DHT22;56333;51.306;17.056;2023-08-30T03:25:20;17.04;80.10
69225;DHT22;56333;51.306;17.056;2023-08-30T03:26:45;17.04;80.10
69225;DHT22;56333;51.306;17.056;2023-08-30T03:28:09;17.03;80.10
69225;DHT22;56333;51.306;17.056;2023-08-30T03:29:34;17.02;80.13
69225;DHT22;56333;51.306;17.056;2023-08-30T03:31:00;17.02;80.22
69225;DHT22;56333;51.306;17.056;2023-08-30T03:32:32;17.01;80.13
69225;DHT22;56333;51.306;17.056;2023-08-30T03:33:57;17.01;80.18
69225;DHT22;56333;51.306;17.056;2023-08-30T03:35:22;17.01;80.13
69225;DHT22;56333;51.306;17.056;2023-08-30T03:36:47;17.00;80.15
69225;DHT22;56333;51.306;17.056;2023-08-30T03:38:16;16.99;79.97
69225;DHT22;56333;51.306;17.056;2023-08-30T03:39:41;16.94;80.00
69225;DHT22;56333;51.306;17.056;2023-08-30T03:41:05;16.92;80.20
69225;DHT22;56333;51.306;17.056;2023-08-30T03:42:30;16.89;80.30
69225;DHT22;56333;51.306;17.056;2023-08-30T03:43:55;16.90;80.40
69225;DHT22;56333;51.306;17.056;2023-08-30T03:45:20;16.89;80.47
69225;DHT22;56333;51.306;17.056;2023-08-30T03:46:46;16.89;80.55
69225;DHT22;56333;51.306;17.056;2023-08-30T03:48:10;16.91;80.53
69225;DHT22;56333;51.306;17.056;2023-08-30T03:49:35;16.91;80.57
69225;DHT22;56333;51.306;17.056;2023-08-30T03:51:00;16.92;80.50
69225;DHT22;56333;51.306;17.056;2023-08-30T03:52:26;16.92;80.43
69225;DHT22;56333;51.306;17.056;2023-08-30T03:53:52;16.91;80.47
69225;DHT22;56333;51.306;17.056;2023-08-30T03:55:18;16.87;80.38
69225;DHT22;56333;51.306;17.056;2023-08-30T03:56:44;16.89;80.55
69225;DHT22;56333;51.306;17.056;2023-08-30T03:58:09;16.85;80.63
69225;DHT22;56333;51.306;17.056;2023-08-30T03:59:34;16.82;80.78
69225;DHT22;56333;51.306;17.056;2023-08-30T04:00:59;16.81;80.85
69225;DHT22;56333;51.306;17.056;2023-08-30T04:02:25;16.81;80.93
69225;DHT22;56333;51.306;17.056;2023-08-30T04:03:49;16.82;81.00
69225;DHT22;56333;51.306;17.056;2023-08-30T04:05:14;16.80;80.95
69225;DHT22;56333;51.306;17.056;2023-08-30T04:06:40;16.82;80.90
69225;DHT22;56333;51.306;17.056;2023-08-30T04:08:05;16.80;80.95
69225;DHT22;56333;51.306;17.056;2023-08-30T04:09:31;16.78;80.88
69225;DHT22;56333;51.306;17.056;2023-08-30T04:10:56;16.77;80.90
69225;DHT22;56333;51.306;17.056;2023-08-30T04:12:21;16.75;81.00
69225;DHT22;56333;51.306;17.056;2023-08-30T04:13:46;16.75;81.03
69225;DHT22;56333;51.306;17.056;2023-08-30T04:15:12;16.77;81.18
69225;DHT22;56333;51.306;17.056;2023-08-30T04:16:37;16.78;81.13
69225;DHT22;56333;51.306;17.056;2023-08-30T04:18:04;16.80;81.13
69225;DHT22;56333;51.306;17.056;2023-08-30T04:19:29;16.79;81.10
69225;DHT22;56333;51.306;17.056;2023-08-30T04:20:56;16.78;81.00
69225;DHT22;56333;51.306;17.056;2023-08-30T04:22:24;16.76;81.03
69225;DHT22;56333;51.306;17.056;2023-08-30T04:23:49;16.75;80.97
69225;DHT22;56333;51.306;17.056;2023-08-30T04:25:14;16.74;80.95
69225;DHT22;56333;51.306;17.056;2023-08-30T04:26:39;16.73;80.93
69225;DHT22;56333;51.306;17.056;2023-08-30T04:28:05;16.70;81.10
69225;DHT22;56333;51.306;17.056;2023-08-30T04:29:29;16.68;81.18
69225;DHT22;56333;51.306;17.056;2023-08-30T04:30:54;16.66;81.45
69225;DHT22;56333;51.306;17.056;2023-08-30T04:32:19;16.65;81.50
69225;DHT22;56333;51.306;17.056;2023-08-30T04:33:43;16.64;81.57
69225;DHT22;56333;51.306;17.056;2023-08-30T04:35:09;16.65;81.60
69225;DHT22;56333;51.306;17.056;2023-08-30T04:36:34;16.65;81.70
69225;DHT22;56333;51.306;17.056;2023-08-30T04:37:59;16.65;81.78
69225;DHT22;56333;51.306;17.056;2023-08-30T04:39:25;16.66;81.70
69225;DHT22;56333;51.306;17.056;2023-08-30T04:40:50;16.67;81.68
69225;DHT22;56333;51.306;17.056;2023-08-30T04:42:21;16.68;81.63
69225;DHT22;56333;51.306;17.056;2023-08-30T04:43:47;16.68;81.63
69225;DHT22;56333;51.306;17.056;2023-08-30T04:45:11;16.68;81.47
69225;DHT22;56333;51.306;17.056;2023-08-30T04:46:35;16.68;81.45
69225;DHT22;56333;51.306;17.056;2023-08-30T04:48:00;16.68;81.50
69225;DHT22;56333;51.306;17.056;2023-08-30T04:49:26;16.69;81.65
69225;DHT22;56333;51.306;17.056;2023-08-30T04:50:59;16.70;81.63
69225;DHT22;56333;51.306;17.056;2023-08-30T04:52:25;16.69;81.68
69225;DHT22;56333;51.306;17.056;2023-08-30T04:53:52;16.72;81.72
69225;DHT22;56333;51.306;17.056;2023-08-30T04:55:17;16.75;81.57
69225;DHT22;56333;51.306;17.056;2023-08-30T04:56:43;16.75;81.55
69225;DHT22;56333;51.306;17.056;2023-08-30T04:58:08;16.77;81.55
69225;DHT22;56333;51.306;17.056;2023-08-30T04:59:33;16.76;81.50
69225;DHT22;56333;51.306;17.056;2023-08-30T05:00:57;16.77;81.60
69225;DHT22;56333;51.306;17.056;2023-08-30T05:02:23;16.77;81.65
69225;DHT22;56333;51.306;17.056;2023-08-30T05:03:54;16.77;81.65
69225;DHT22;56333;51.306;17.056;2023-08-30T05:05:19;16.78;81.65
69225;DHT22;56333;51.306;17.056;2023-08-30T05:06:45;16.77;81.65
69225;DHT22;56333;51.306;17.056;2023-08-30T05:08:09;16.80;81.60
69225;DHT22;56333;51.306;17.056;2023-08-30T05:09:34;16.83;81.60
69225;DHT22;56333;51.306;17.056;2023-08-30T05:10:59;16.83;81.40
69225;DHT22;56333;51.306;17.056;2023-08-30T05:12:25;16.83;81.28
69225;DHT22;56333;51.306;17.056;2023-08-30T05:13:49;16.86;81.15
69225;DHT22;56333;51.306;17.056;2023-08-30T05:15:15;16.88;81.00
69225;DHT22;56333;51.306;17.056;2023-08-30T05:16:40;16.86;80.95
69225;DHT22;56333;51.306;17.056;2023-08-30T05:18:05;16.89;81.05
69225;DHT22;56333;51.306;17.056;2023-08-30T05:19:29;16.90;81.07
69225;DHT22;56333;51.306;17.056;2023-08-30T05:20:55;16.91;81.13
69225;DHT22;56333;51.306;17.056;2023-08-30T05:22:20;16.93;81.13
69225;DHT22;56333;51.306;17.056;2023-08-30T05:23:44;16.98;81.20
69225;DHT22;56333;51.306;17.056;2023-08-30T05:25:10;17.00;81.03
69225;DHT22;56333;51.306;17.056;2023-08-30T05:26:34;17.02;81.03
69225;DHT22;56333;51.306;17.056;2023-08-30T05:27:59;17.02;80.78
69225;DHT22;56333;51.306;17.056;2023-08-30T05:29:24;17.02;80.60
69225;DHT22;56333;51.306;17.056;2023-08-30T05:30:48;17.02;80.60
69225;DHT22;56333;51.306;17.056;2023-08-30T05:32:54;16.98;80.60
69225;DHT22;56333;51.306;17.056;2023-08-30T05:34:38;16.94;80.70
69225;DHT22;56333;51.306;17.056;2023-08-30T05:36:02;16.97;80.75
69225;DHT22;56333;51.306;17.056;2023-08-30T05:37:48;16.94;80.80
69225;DHT22;56333;51.306;17.056;2023-08-30T05:39:32;16.98;80.82
69225;DHT22;56333;51.306;17.056;2023-08-30T05:40:58;17.01;80.88
69225;DHT22;56333;51.306;17.056;2023-08-30T05:42:25;17.05;80.82
69225;DHT22;56333;51.306;17.056;2023-08-30T05:43:53;17.06;80.63
69225;DHT22;56333;51.306;17.056;2023-08-30T05:45:19;17.05;80.60
69225;DHT22;56333;51.306;17.056;2023-08-30T05:46:43;17.04;80.47
69225;DHT22;56333;51.306;17.056;2023-08-30T05:48:07;17.07;80.45
69225;DHT22;56333;51.306;17.056;2023-08-30T05:49:33;17.08;80.50
69225;DHT22;56333;51.306;17.056;2023-08-30T05:50:58;17.11;80.57
69225;DHT22;56333;51.306;17.056;2023-08-30T05:52:22;17.16;80.55
69225;DHT22;56333;51.306;17.056;2023-08-30T05:53:47;17.19;80.53
69225;DHT22;56333;51.306;17.056;2023-08-30T05:55:11;17.25;80.50
69225;DHT22;56333;51.306;17.056;2023-08-30T05:56:36;17.31;80.43
69225;DHT22;56333;51.306;17.056;2023-08-30T05:58:00;17.35;80.25
69225;DHT22;56333;51.306;17.056;2023-08-30T05:59:25;17.38;79.93
69225;DHT22;56333;51.306;17.056;2023-08-30T06:00:50;17.38;79.78
69225;DHT22;56333;51.306;17.056;2023-08-30T06:02:15;17.40;79.65
69225;DHT22;56333;51.306;17.056;2023-08-30T06:03:40;17.41;79.60
69225;DHT22;56333;51.306;17.056;2023-08-30T06:05:05;17.42;79.68
69225;DHT22;56333;51.306;17.056;2023-08-30T06:06:31;17.44;79.80
69225;DHT22;56333;51.306;17.056;2023-08-30T06:07:56;17.47;79.82
69225;DHT22;56333;51.306;17.056;2023-08-30T06:09:20;17.47;79.63
69225;DHT22;56333;51.306;17.056;2023-08-30T06:10:45;17.48;79.43
69225;DHT22;56333;51.306;17.056;2023-08-30T06:12:09;17.49;79.40
69225;DHT22;56333;51.306;17.056;2023-08-30T06:13:34;17.50;79.30
69225;DHT22;56333;51.306;17.056;2023-08-30T06:14:59;17.49;79.30
69225;DHT22;56333;51.306;17.056;2023-08-30T06:16:26;17.49;79.32
69225;DHT22;56333;51.306;17.056;2023-08-30T06:17:50;17.49;79.30
69225;DHT22;56333;51.306;17.056;2023-08-30T06:19:16;17.50;79.32
69225;DHT22;56333;51.306;17.056;2023-08-30T06:20:41;17.54;79.35
69225;DHT22;56333;51.306;17.056;2023-08-30T06:22:05;17.57;79.43
69225;DHT22;56333;51.306;17.056;2023-08-30T06:23:30;17.59;79.13
69225;DHT22;56333;51.306;17.056;2023-08-30T06:24:56;17.62;79.07
69225;DHT22;56333;51.306;17.056;2023-08-30T06:26:21;17.65;79.03
69225;DHT22;56333;51.306;17.056;2023-08-30T06:27:56;17.65;78.78
69225;DHT22;56333;51.306;17.056;2023-08-30T06:29:24;17.66;78.90
69225;DHT22;56333;51.306;17.056;2023-08-30T06:30:49;17.68;78.93
69225;DHT22;56333;51.306;17.056;2023-08-30T06:32:13;17.70;78.93
69225;DHT22;56333;51.306;17.056;2023-08-30T06:33:39;17.73;79.00
69225;DHT22;56333;51.306;17.056;2023-08-30T06:35:03;17.77;78.95
69225;DHT22;56333;51.306;17.056;2023-08-30T06:36:29;17.78;78.55
69225;DHT22;56333;51.306;17.056;2023-08-30T06:37:54;17.80;78.53
69225;DHT22;56333;51.306;17.056;2023-08-30T06:39:18;17.77;78.15
69225;DHT22;56333;51.306;17.056;2023-08-30T06:40:44;17.76;78.15
69225;DHT22;56333;51.306;17.056;2023-08-30T06:42:09;17.74;78.10
69225;DHT22;56333;51.306;17.056;2023-08-30T06:43:36;17.68;77.90
69225;DHT22;56333;51.306;17.056;2023-08-30T06:45:01;17.65;78.13
69225;DHT22;56333;51.306;17.056;2023-08-30T06:46:28;17.60;78.28
69225;DHT22;56333;51.306;17.056;2023-08-30T06:47:53;17.59;78.45
69225;DHT22;56333;51.306;17.056;2023-08-30T06:49:18;17.56;78.63
69225;DHT22;56333;51.306;17.056;2023-08-30T06:50:43;17.53;78.65
69225;DHT22;56333;51.306;17.056;2023-08-30T06:52:07;17.49;78.78
69225;DHT22;56333;51.306;17.056;2023-08-30T06:53:32;17.50;78.78
69225;DHT22;56333;51.306;17.056;2023-08-30T06:54:57;17.47;78.80
69225;DHT22;56333;51.306;17.056;2023-08-30T06:56:21;17.44;78.63
69225;DHT22;56333;51.306;17.056;2023-08-30T06:57:47;17.42;78.53
69225;DHT22;56333;51.306;17.056;2023-08-30T06:59:12;17.42;78.70
69225;DHT22;56333;51.306;17.056;2023-08-30T07:00:37;17.42;78.80
69225;DHT22;56333;51.306;17.056;2023-08-30T07:02:02;17.47;78.78
69225;DHT22;56333;51.306;17.056;2023-08-30T07:03:27;17.52;78.80
69225;DHT22;56333;51.306;17.056;2023-08-30T07:04:51;17.58;78.50
69225;DHT22;56333;51.306;17.056;2023-08-30T07:06:16;17.64;78.18
69225;DHT22;56333;51.306;17.056;2023-08-30T07:07:41;17.68;77.93
69225;DHT22;56333;51.306;17.056;2023-08-30T07:09:06;17.72;77.85
69225;DHT22;56333;51.306;17.056;2023-08-30T07:10:30;17.73;77.68
69225;DHT22;56333;51.306;17.056;2023-08-30T07:11:57;17.75;77.70
69225;DHT22;56333;51.306;17.056;2023-08-30T07:13:22;17.73;77.60
69225;DHT22;56333;51.306;17.056;2023-08-30T07:14:46;17.69;77.20
69225;DHT22;56333;51.306;17.056;2023-08-30T07:16:11;17.67;77.47
69225;DHT22;56333;51.306;17.056;2023-08-30T07:17:36;17.66;77.38
69225;DHT22;56333;51.306;17.056;2023-08-30T07:19:04;17.70;77.57
69225;DHT22;56333;51.306;17.056;2023-08-30T07:20:29;17.75;77.43
69225;DHT22;56333;51.306;17.056;2023-08-30T07:21:53;17.82;77.47
69225;DHT22;56333;51.306;17.056;2023-08-30T07:23:18;17.90;77.32
69225;DHT22;56333;51.306;17.056;2023-08-30T07:24:45;17.95;76.97
69225;DHT22;56333;51.306;17.056;2023-08-30T07:26:10;17.96;76.57
69225;DHT22;56333;51.306;17.056;2023-08-30T07:27:34;18.00;76.53
69225;DHT22;56333;51.306;17.056;2023-08-30T07:28:59;17.93;76.22
69225;DHT22;56333;51.306;17.056;2023-08-30T07:30:24;17.95;76.38
69225;DHT22;56333;51.306;17.056;2023-08-30T07:31:49;17.97;76.50
69225;DHT22;56333;51.306;17.056;2023-08-30T07:33:15;17.97;76.22
69225;DHT22;56333;51.306;17.056;2023-08-30T07:34:40;17.99;76.28
69225;DHT22;56333;51.306;17.056;2023-08-30T07:36:05;18.02;76.28
69225;DHT22;56333;51.306;17.056;2023-08-30T07:37:30;18.00;75.93
69225;DHT22;56333;51.306;17.056;2023-08-30T07:38:54;17.98;75.72
69225;DHT22;56333;51.306;17.056;2023-08-30T07:40:19;17.94;75.80
69225;DHT22;56333;51.306;17.056;2023-08-30T07:41:46;17.94;75.85
69225;DHT22;56333;51.306;17.056;2023-08-30T07:43:11;17.86;75.88
69225;DHT22;56333;51.306;17.056;2023-08-30T07:44:36;17.84;76.15
69225;DHT22;56333;51.306;17.056;2023-08-30T07:46:01;17.84;76.32
69225;DHT22;56333;51.306;17.056;2023-08-30T07:47:26;17.85;76.53
69225;DHT22;56333;51.306;17.056;2023-08-30T07:48:50;17.83;76.40
69225;DHT22;56333;51.306;17.056;2023-08-30T07:50:15;17.81;76.38
69225;DHT22;56333;51.306;17.056;2023-08-30T07:51:40;17.81;76.47
69225;DHT22;56333;51.306;17.056;2023-08-30T07:53:04;17.79;76.32
69225;DHT22;56333;51.306;17.056;2023-08-30T07:54:30;17.76;76.43
69225;DHT22;56333;51.306;17.056;2023-08-30T07:55:56;17.71;76.45
69225;DHT22;56333;51.306;17.056;2023-08-30T07:57:20;17.69;76.70
69225;DHT22;56333;51.306;17.056;2023-08-30T07:58:44;17.72;76.85
69225;DHT22;56333;51.306;17.056;2023-08-30T08:00:13;17.74;76.93
69225;DHT22;56333;51.306;17.056;2023-08-30T08:01:41;17.77;76.78
69225;DHT22;56333;51.306;17.056;2023-08-30T08:03:07;17.82;76.70
69225;DHT22;56333;51.306;17.056;2023-08-30T08:04:32;17.89;76.68
69225;DHT22;56333;51.306;17.056;2023-08-30T08:05:58;17.98;76.65
69225;DHT22;56333;51.306;17.056;2023-08-30T08:07:23;18.04;76.55
69225;DHT22;56333;51.306;17.056;2023-08-30T08:08:47;18.09;76.07
69225;DHT22;56333;51.306;17.056;2023-08-30T08:10:12;18.12;76.03
69225;DHT22;56333;51.306;17.056;2023-08-30T08:11:37;18.13;75.90
69225;DHT22;56333;51.306;17.056;2023-08-30T08:13:05;18.15;76.00
69225;DHT22;56333;51.306;17.056;2023-08-30T08:14:29;18.20;76.10
69225;DHT22;56333;51.306;17.056;2023-08-30T08:15:56;18.22;75.88
69225;DHT22;56333;51.306;17.056;2023-08-30T08:17:20;18.21;75.50
69225;DHT22;56333;51.306;17.056;2023-08-30T08:18:44;18.19;75.07
69225;DHT22;56333;51.306;17.056;2023-08-30T08:20:11;18.17;75.28
69225;DHT22;56333;51.306;17.056;2023-08-30T08:21:36;18.14;75.03
69225;DHT22;56333;51.306;17.056;2023-08-30T08:23:01;18.11;75.00
69225;DHT22;56333;51.306;17.056;2023-08-30T08:24:25;18.05;75.07
69225;DHT22;56333;51.306;17.056;2023-08-30T08:25:56;18.00;75.18
69225;DHT22;56333;51.306;17.056;2023-08-30T08:27:21;17.99;75.50
69225;DHT22;56333;51.306;17.056;2023-08-30T08:28:48;17.97;75.60
69225;DHT22;56333;51.306;17.056;2023-08-30T08:30:14;17.96;75.68
69225;DHT22;56333;51.306;17.056;2023-08-30T08:31:39;17.97;75.70
69225;DHT22;56333;51.306;17.056;2023-08-30T08:33:04;17.98;75.70
69225;DHT22;56333;51.306;17.056;2023-08-30T08:34:29;17.97;75.55
69225;DHT22;56333;51.306;17.056;2023-08-30T08:35:54;17.96;75.47
69225;DHT22;56333;51.306;17.056;2023-08-30T08:37:18;17.96;75.53
69225;DHT22;56333;51.306;17.056;2023-08-30T08:38:43;17.95;75.53
69225;DHT22;56333;51.306;17.056;2023-08-30T08:40:10;17.99;75.68
69225;DHT22;56333;51.306;17.056;2023-08-30T08:41:38;18.01;75.75
69225;DHT22;56333;51.306;17.056;2023-08-30T08:43:05;18.03;75.60
69225;DHT22;56333;51.306;17.056;2023-08-30T08:44:31;18.05;75.38
69225;DHT22;56333;51.306;17.056;2023-08-30T08:45:58;18.04;75.40
69225;DHT22;56333;51.306;17.056;2023-08-30T08:47:24;18.06;75.47
69225;DHT22;56333;51.306;17.056;2023-08-30T08:48:50;18.06;75.45
69225;DHT22;56333;51.306;17.056;2023-08-30T08:50:17;18.08;75.53
69225;DHT22;56333;51.306;17.056;2023-08-30T08:51:44;18.08;75.50
69225;DHT22;56333;51.306;17.056;2023-08-30T08:53:08;18.08;75.47
69225;DHT22;56333;51.306;17.056;2023-08-30T08:54:34;18.06;75.28
69225;DHT22;56333;51.306;17.056;2023-08-30T08:55:59;18.04;75.35